Time;durP1;ratioP1;P1;durP2;ratioP2;P2;SDS_P1;SDS_P2;PMS_P1;PMS_P2;Temp;Humidity;BMP_temperature;BMP_pressure;BME280_temperature;BME280_humidity;BME280_pressure;Samples;Min_cycle;Max_cycle;Signal;HPM_P1;HPM_P2
2024/01/07 00:01:56;;;;;;;;;25.00;23.20;;;;;8.56;47.84;97517.16;5071330;28;8989;-77
2024/01/07 00:04:25;;;;;;;;;25.60;21.20;;;;;8.53;48.01;97514.66;5071865;28;8958;-77
2024/01/07 00:06:54;;;;;;;;;22.60;20.20;;;;;8.62;47.72;97515.09;5071825;28;8850;-79
2024/01/07 00:09:23;;;;;;;;;24.80;23.60;;;;;8.74;47.19;97521.56;5000099;28;8846;-78
2024/01/07 00:11:52;;;;;;;;;23.00;20.80;;;;;8.72;47.12;97525.16;5048719;28;8854;-77
2024/01/07 00:14:23;;;;;;;;;24.00;20.40;;;;;8.69;47.06;97518.31;5049033;28;8869;-77
2024/01/07 00:16:52;;;;;;;;;23.20;20.00;;;;;8.74;47.34;97520.69;5048692;28;8874;-78
2024/01/07 00:19:21;;;;;;;;;20.80;18.00;;;;;8.67;46.86;97519.28;5048672;28;8873;-76
2024/01/07 00:21:50;;;;;;;;;19.00;18.80;;;;;8.72;47.01;97520.75;5048308;28;8925;-76
2024/01/07 00:24:20;;;;;;;;;24.60;20.00;;;;;8.68;46.80;97519.22;5048865;28;8854;-78
2024/01/07 00:26:48;;;;;;;;;18.80;17.40;;;;;8.64;47.16;97517.66;5053127;28;8889;-78
2024/01/07 00:29:17;;;;;;;;;20.20;19.00;;;;;8.68;46.68;97507.88;5057749;28;8854;-77
2024/01/07 00:31:47;;;;;;;;;18.40;15.80;;;;;8.64;46.63;97513.25;5004082;28;8985;-76
2024/01/07 00:34:17;;;;;;;;;18.20;17.40;;;;;8.65;46.70;97511.50;5031513;28;8923;-78
2024/01/07 00:36:46;;;;;;;;;16.80;15.00;;;;;8.64;46.56;97508.03;5045355;28;8864;-77
2024/01/07 00:39:15;;;;;;;;;17.60;16.40;;;;;8.61;46.93;97500.31;5028872;28;9627;-76
2024/01/07 00:41:44;;;;;;;;;13.40;12.20;;;;;8.52;47.21;97500.75;5066477;28;8851;-76
2024/01/07 00:44:13;;;;;;;;;18.20;16.80;;;;;8.58;47.33;97507.47;5018995;28;8860;-76
2024/01/07 00:46:42;;;;;;;;;16.00;15.60;;;;;8.61;46.78;97504.69;5085068;28;8882;-76
2024/01/07 00:49:16;;;;;;;;;14.20;12.60;;;;;8.50;47.14;97494.72;5068628;28;8880;-78
2024/01/07 00:51:46;;;;;;;;;17.60;16.00;;;;;8.52;47.05;97495.50;5068043;28;8855;-77
2024/01/07 00:54:15;;;;;;;;;18.80;16.20;;;;;8.37;47.53;97490.97;5068187;28;8875;-78
2024/01/07 00:56:44;;;;;;;;;18.80;18.00;;;;;8.43;47.38;97491.53;5085410;28;8839;-77
2024/01/07 00:59:13;;;;;;;;;12.60;11.60;;;;;8.29;47.44;97486.03;5068201;28;8856;-78
2024/01/07 01:01:42;;;;;;;;;19.40;19.40;;;;;8.20;47.86;97471.59;5051876;28;8871;-77
2024/01/07 01:04:11;;;;;;;;;20.40;18.80;;;;;8.19;47.51;97476.88;5052250;28;8844;-76
2024/01/07 01:06:43;;;;;;;;;22.00;18.00;;;;;8.15;47.45;97478.78;5103036;28;8945;-76
2024/01/07 01:09:12;;;;;;;;;22.20;20.40;;;;;8.07;47.85;97478.28;5070598;28;8892;-78
2024/01/07 01:11:41;;;;;;;;;22.00;21.20;;;;;7.96;48.10;97477.91;5069396;28;8847;-77
2024/01/07 01:14:10;;;;;;;;;27.80;24.60;;;;;8.13;48.31;97462.31;5070432;28;9709;-77
2024/01/07 01:16:39;;;;;;;;;22.80;21.40;;;;;7.96;48.08;97464.81;5075395;28;8874;-76
2024/01/07 01:19:08;;;;;;;;;22.20;22.20;;;;;7.89;48.30;97464.22;5078739;28;8862;-77
2024/01/07 01:21:37;;;;;;;;;23.20;22.00;;;;;7.76;49.38;97466.53;5070505;28;8862;-77
2024/01/07 01:24:08;;;;;;;;;20.40;20.40;;;;;7.72;49.57;97466.72;5069834;28;8889;-76
2024/01/07 01:26:39;;;;;;;;;23.60;21.80;;;;;7.83;49.18;97454.88;5070325;28;8851;-78
2024/01/07 01:29:08;;;;;;;;;20.00;19.80;;;;;7.85;48.63;97463.53;5070207;28;9662;-78
2024/01/07 01:31:37;;;;;;;;;17.20;16.80;;;;;7.90;48.88;97452.84;5068684;28;9647;-76
2024/01/07 01:34:06;;;;;;;;;10.00;8.60;;;;;7.73;48.94;97450.13;5068403;28;8858;-77
2024/01/07 01:36:35;;;;;;;;;4.00;4.00;;;;;7.85;48.87;97453.06;5068689;28;8858;-79
2024/01/07 01:39:04;;;;;;;;;16.80;16.80;;;;;7.80;49.04;97439.34;5085537;28;8878;-76
2024/01/07 01:41:35;;;;;;;;;19.60;17.00;;;;;7.81;49.17;97437.56;5068612;28;8854;-77
2024/01/07 01:44:04;;;;;;;;;17.60;15.00;;;;;7.75;48.46;97433.44;5069658;28;8850;-77
2024/01/07 01:46:33;;;;;;;;;18.20;17.00;;;;;7.72;48.74;97424.88;5068250;28;8866;-76
2024/01/07 01:49:03;;;;;;;;;16.60;16.60;;;;;7.70;49.25;97424.09;5069471;28;8842;-77
2024/01/07 01:51:32;;;;;;;;;22.00;20.80;;;;;7.76;49.00;97426.44;5069596;28;8936;-78
2024/01/07 01:54:02;;;;;;;;;17.60;15.00;;;;;7.66;49.23;97426.00;5051019;28;9573;-79
2024/01/07 01:56:32;;;;;;;;;19.20;17.40;;;;;7.56;49.47;97422.09;5068078;28;8861;-76
2024/01/07 01:59:03;;;;;;;;;18.40;17.00;;;;;7.67;48.77;97425.09;5068028;28;8877;-77
2024/01/07 02:01:32;;;;;;;;;18.40;18.00;;;;;7.49;49.00;97416.25;5068056;28;8895;-77
2024/01/07 02:04:01;;;;;;;;;19.20;18.00;;;;;7.57;49.29;97423.78;5017842;28;8897;-77
2024/01/07 02:06:31;;;;;;;;;12.60;11.00;;;;;7.58;49.47;97412.41;5074464;28;8882;-76
2024/01/07 02:09:01;;;;;;;;;17.00;17.00;;;;;7.51;49.32;97410.97;5079275;28;8854;-78
2024/01/07 02:11:29;;;;;;;;;16.20;16.00;;;;;7.62;49.23;97408.75;5070262;28;8846;-77
2024/01/07 02:13:59;;;;;;;;;17.40;17.40;;;;;7.54;48.65;97403.00;5068292;28;8861;-77
2024/01/07 02:16:29;;;;;;;;;18.00;17.00;;;;;7.46;49.52;97398.94;5067905;28;8901;-76
2024/01/07 02:18:58;;;;;;;;;16.40;15.00;;;;;7.38;48.86;97403.66;5067744;28;8897;-76
2024/01/07 02:21:28;;;;;;;;;20.60;20.00;;;;;7.34;49.88;97389.00;5050998;28;8938;-77
2024/01/07 02:23:57;;;;;;;;;23.40;17.20;;;;;7.26;50.41;97393.72;5050419;28;9631;-77
2024/01/07 02:26:29;;;;;;;;;20.20;17.20;;;;;7.27;49.64;97393.66;5069105;28;8882;-78
2024/01/07 02:28:58;;;;;;;;;23.00;18.80;;;;;7.29;49.54;97393.59;5068139;28;8827;-78
2024/01/07 02:31:27;;;;;;;;;18.40;16.60;;;;;7.31;49.96;97381.31;5068030;28;8858;-78
2024/01/07 02:33:57;;;;;;;;;17.20;17.20;;;;;7.24;49.75;97372.88;5069437;28;8842;-78
2024/01/07 02:36:26;;;;;;;;;19.60;16.60;;;;;7.18;50.04;97390.59;5069116;28;8985;-77
2024/01/07 02:38:55;;;;;;;;;17.20;16.00;;;;;7.12;50.44;97386.47;5084672;28;8854;-77
2024/01/07 02:41:25;;;;;;;;;17.00;15.40;;;;;7.23;50.14;97384.25;5069206;28;8850;-77
2024/01/07 02:43:56;;;;;;;;;11.80;9.80;;;;;7.22;49.58;97385.16;5069430;28;8864;-76
2024/01/07 02:46:25;;;;;;;;;21.20;17.60;;;;;7.19;50.19;97385.31;5067573;28;9627;-77
2024/01/07 02:48:54;;;;;;;;;20.20;19.40;;;;;7.29;49.58;97386.59;5067595;28;8862;-76
2024/01/07 02:51:23;;;;;;;;;20.20;20.00;;;;;7.24;49.34;97372.03;5068043;28;8862;-77
2024/01/07 02:53:52;;;;;;;;;20.60;20.60;;;;;7.32;49.70;97374.31;5068286;28;8931;-76
2024/01/07 02:56:21;;;;;;;;;16.80;16.00;;;;;7.32;49.64;97376.94;5075334;28;8880;-77
2024/01/07 02:58:50;;;;;;;;;19.60;17.80;;;;;7.30;49.92;97369.16;5079254;28;8842;-76
2024/01/07 03:01:23;;;;;;;;;17.00;15.00;;;;;7.45;49.26;97376.31;5022855;28;8850;-76
2024/01/07 03:03:52;;;;;;;;;17.20;16.40;;;;;7.36;49.29;97371.53;5069183;28;8857;-77
2024/01/07 03:06:21;;;;;;;;;20.40;18.00;;;;;7.48;48.94;97381.44;5067629;28;9631;-77
2024/01/07 03:08:50;;;;;;;;;26.00;22.20;;;;;7.45;49.28;97378.94;5068021;28;8866;-76
2024/01/07 03:11:19;;;;;;;;;19.60;18.20;;;;;7.41;48.94;97366.09;5068619;28;8881;-77
2024/01/07 03:13:48;;;;;;;;;22.20;21.60;;;;;7.32;49.16;97363.84;5032953;28;8873;-76
2024/01/07 03:16:22;;;;;;;;;22.40;19.80;;;;;7.24;49.07;97367.66;5067426;28;8955;-77
2024/01/07 03:18:51;;;;;;;;;24.20;21.20;;;;;7.26;48.96;97362.34;5068461;28;8889;-75
2024/01/07 03:21:21;;;;;;;;;22.00;20.20;;;;;7.32;49.24;97356.03;5068289;28;8838;-77
2024/01/07 03:23:52;;;;;;;;;23.20;21.00;;;;;7.21;48.95;97349.50;5066125;28;9457;-77
2024/01/07 03:26:21;;;;;;;;;14.80;11.80;;;;;7.16;49.01;97350.63;5083996;28;8858;-78
2024/01/07 03:28:50;;;;;;;;;22.20;19.60;;;;;7.03;49.39;97345.03;5068466;28;8862;-78
2024/01/07 03:31:23;;;;;;;;;17.20;17.00;;;;;7.12;48.91;97351.63;5068371;28;8854;-77
2024/01/07 03:33:53;;;;;;;;;20.60;17.60;;;;;7.12;49.32;97343.78;5067413;28;8847;-76
2024/01/07 03:36:23;;;;;;;;;22.00;20.00;;;;;7.01;48.35;97344.25;5068405;28;8878;-77
2024/01/07 03:38:53;;;;;;;;;15.80;15.80;;;;;7.05;48.55;97345.84;5067153;28;8857;-76
2024/01/07 03:41:22;;;;;;;;;15.60;15.00;;;;;7.11;48.14;97342.94;5067928;28;8855;-77
2024/01/07 03:43:53;;;;;;;;;19.80;16.40;;;;;7.13;47.64;97340.28;5050240;28;8894;-77
2024/01/07 03:46:22;;;;;;;;;20.20;16.80;;;;;7.16;47.58;97337.56;5077224;28;8851;-78
2024/01/07 03:48:51;;;;;;;;;16.40;16.40;;;;;7.22;47.25;97343.34;5057952;28;8851;-76
2024/01/07 03:51:21;;;;;;;;;16.80;15.60;;;;;7.37;46.86;97338.38;5069422;28;8858;-78
2024/01/07 03:53:50;;;;;;;;;20.00;18.40;;;;;7.38;46.42;97345.28;5033712;28;8858;-78
2024/01/07 03:56:19;;;;;;;;;17.80;15.40;;;;;7.54;45.85;97359.41;5072240;28;8861;-77
2024/01/07 03:58:48;;;;;;;;;16.80;14.00;;;;;7.38;46.22;97346.16;5060533;28;8875;-76
2024/01/07 04:01:18;;;;;;;;;14.60;14.60;;;;;7.51;45.05;97348.22;5054838;28;8853;-77
2024/01/07 04:03:47;;;;;;;;;15.20;15.00;;;;;7.49;45.13;97350.91;5017161;28;8868;-77
2024/01/07 04:06:16;;;;;;;;;15.20;15.20;;;;;7.72;45.01;97342.06;5051732;28;8880;-78
2024/01/07 04:08:47;;;;;;;;;21.80;18.40;;;;;7.77;44.32;97337.47;5051854;28;9980;-76
2024/01/07 04:11:15;;;;;;;;;16.00;15.00;;;;;7.76;44.82;97341.00;5059659;28;8858;-76
2024/01/07 04:13:45;;;;;;;;;11.80;10.60;;;;;7.85;44.43;97342.34;5071645;28;8971;-77
2024/01/07 04:16:18;;;;;;;;;16.00;14.60;;;;;7.85;43.96;97326.66;5071740;28;8989;-76
2024/01/07 04:18:47;;;;;;;;;15.80;14.80;;;;;7.80;44.26;97333.88;5053100;28;8954;-75
2024/01/07 04:21:22;;;;;;;;;15.00;14.00;;;;;7.68;44.80;97335.25;5071138;28;8838;-79
2024/01/07 04:23:52;;;;;;;;;14.20;12.80;;;;;7.79;43.86;97332.16;5071319;28;8866;-77
2024/01/07 04:26:21;;;;;;;;;16.00;13.80;;;;;7.91;43.17;97336.84;5052933;28;8846;-79
2024/01/07 04:28:51;;;;;;;;;14.40;13.80;;;;;7.93;42.97;97336.75;5071314;28;8842;-78
2024/01/07 04:31:20;;;;;;;;;14.80;14.80;;;;;7.86;42.60;97337.03;5071608;28;8963;-78
2024/01/07 04:33:49;;;;;;;;;16.00;14.60;;;;;7.89;42.75;97346.50;5071600;28;8862;-78
2024/01/07 04:36:18;;;;;;;;;14.00;11.80;;;;;8.04;42.79;97339.72;5080511;28;8976;-76
2024/01/07 04:38:47;;;;;;;;;16.80;16.20;;;;;8.04;42.71;97343.22;5057712;28;8838;-77
2024/01/07 04:41:17;;;;;;;;;13.80;12.40;;;;;7.98;42.19;97340.88;5071921;28;8891;-77
2024/01/07 04:43:46;;;;;;;;;12.20;11.60;;;;;7.82;42.43;97343.34;5071338;28;9568;-77
2024/01/07 04:46:15;;;;;;;;;8.00;8.00;;;;;7.80;41.88;97339.94;5071089;28;9032;-77
2024/01/07 04:48:45;;;;;;;;;12.40;11.20;;;;;7.86;42.51;97342.28;5069801;28;8861;-78
2024/01/07 04:51:13;;;;;;;;;12.20;10.60;;;;;7.90;42.14;97336.91;5070799;28;8855;-75
2024/01/07 04:53:43;;;;;;;;;13.20;12.00;;;;;7.89;41.83;97346.50;5070487;28;8843;-78
2024/01/07 04:56:12;;;;;;;;;9.00;9.00;;;;;7.93;41.32;97348.09;5052054;28;8866;-77
2024/01/07 04:58:42;;;;;;;;;17.80;16.20;;;;;7.74;41.24;97344.59;5070755;28;9631;-77
2024/01/07 05:01:11;;;;;;;;;9.60;9.60;;;;;7.91;41.92;97355.16;5070710;28;9657;-77
2024/01/07 05:03:40;;;;;;;;;11.60;8.80;;;;;7.87;42.02;97356.19;5035623;28;8846;-76
2024/01/07 05:06:10;;;;;;;;;9.20;9.00;;;;;7.91;41.48;97352.56;5068929;28;8880;-77
2024/01/07 05:08:41;;;;;;;;;10.20;10.20;;;;;7.98;41.32;97359.19;5050956;28;9572;-76
2024/01/07 05:11:11;;;;;;;;;10.40;10.40;;;;;8.02;41.00;97363.38;5070270;28;9604;-77
2024/01/07 05:13:40;;;;;;;;;10.40;10.40;;;;;7.98;41.61;97363.56;5070600;28;8854;-78
2024/01/07 05:16:10;;;;;;;;;14.20;11.40;;;;;8.22;41.24;97362.44;5068967;28;8855;-76
2024/01/07 05:18:39;;;;;;;;;12.00;10.80;;;;;8.27;40.66;97357.00;5070492;28;8838;-77
2024/01/07 05:21:08;;;;;;;;;11.20;10.40;;;;;8.17;41.41;97359.19;5069232;28;8838;-77
2024/01/07 05:23:40;;;;;;;;;11.00;9.00;;;;;8.29;41.04;97354.28;5071525;28;8858;-77
2024/01/07 05:26:09;;;;;;;;;10.20;9.60;;;;;8.21;40.67;97358.16;5067151;28;8849;-76
2024/01/07 05:28:38;;;;;;;;;11.00;10.00;;;;;8.08;40.98;97364.88;5032843;28;8872;-78
2024/01/07 05:31:16;;;;;;;;;11.60;10.60;;;;;8.11;41.42;97359.47;5050423;28;8888;-76
2024/01/07 05:33:46;;;;;;;;;10.60;10.40;;;;;8.21;41.26;97362.50;5065463;28;8844;-76
2024/01/07 05:36:16;;;;;;;;;10.20;10.20;;;;;8.28;41.18;97363.94;5049963;28;9346;-78
2024/01/07 05:38:45;;;;;;;;;15.00;14.20;;;;;8.40;41.36;97373.88;5050170;28;8860;-77
2024/01/07 05:41:14;;;;;;;;;10.60;9.40;;;;;8.29;41.20;97376.09;5049876;28;8865;-77
2024/01/07 05:43:43;;;;;;;;;9.40;9.00;;;;;8.43;40.95;97368.47;5015176;28;8865;-77
2024/01/07 05:46:12;;;;;;;;;13.80;10.40;;;;;8.35;41.37;97375.00;5031007;28;8861;-76
2024/01/07 05:48:48;;;;;;;;;9.80;9.80;;;;;8.43;41.57;97362.38;5061005;28;8863;-77
2024/01/07 05:51:17;;;;;;;;;12.00;12.00;;;;;8.24;41.90;97357.13;5069786;28;8834;-77
2024/01/07 05:53:46;;;;;;;;;14.40;12.60;;;;;8.41;41.64;97353.75;5069428;28;8850;-78
2024/01/07 05:56:15;;;;;;;;;17.60;15.20;;;;;8.49;41.16;97362.09;5069300;28;10119;-78
2024/01/07 05:58:44;;;;;;;;;11.20;11.00;;;;;8.41;42.07;97359.84;5034050;28;8830;-77
2024/01/07 06:01:20;;;;;;;;;12.40;11.40;;;;;8.40;42.16;97355.53;5069685;28;8858;-77
2024/01/07 06:03:50;;;;;;;;;9.40;9.40;;;;;8.46;42.10;97351.78;5069752;28;8826;-79
2024/01/07 06:06:20;;;;;;;;;14.20;11.40;;;;;8.42;42.34;97352.81;5069512;28;8854;-78
2024/01/07 06:08:50;;;;;;;;;13.40;12.00;;;;;8.51;41.76;97348.94;5069333;28;8877;-77
2024/01/07 06:11:20;;;;;;;;;13.00;11.80;;;;;8.55;42.40;97347.84;5069761;28;8839;-76
2024/01/07 06:13:49;;;;;;;;;15.60;14.40;;;;;8.51;42.29;97344.53;5070138;28;8881;-77
2024/01/07 06:16:18;;;;;;;;;14.00;13.80;;;;;8.43;42.97;97349.31;5077972;28;8874;-76
2024/01/07 06:18:47;;;;;;;;;14.80;14.80;;;;;8.45;42.44;97352.69;5071910;28;8886;-76
2024/01/07 06:21:18;;;;;;;;;13.00;12.80;;;;;8.47;42.63;97355.25;5069187;28;8866;-77
2024/01/07 06:23:47;;;;;;;;;14.80;12.80;;;;;8.48;42.82;97356.91;5069158;28;8861;-77
2024/01/07 06:26:16;;;;;;;;;14.60;14.40;;;;;8.45;43.47;97360.53;5067684;28;8874;-76
2024/01/07 06:28:45;;;;;;;;;12.00;12.00;;;;;8.57;43.23;97361.72;5069081;28;9324;-77
2024/01/07 06:31:14;;;;;;;;;15.00;15.00;;;;;8.50;43.35;97374.28;5068876;28;8935;-77
2024/01/07 06:33:43;;;;;;;;;13.00;13.00;;;;;8.51;43.29;97375.97;5050199;28;8850;-77
2024/01/07 06:36:13;;;;;;;;;17.00;13.40;;;;;8.60;43.01;97374.69;5069336;28;8851;-77
2024/01/07 06:38:43;;;;;;;;;12.40;12.40;;;;;8.66;43.21;97374.38;5067301;28;8838;-76
2024/01/07 06:41:13;;;;;;;;;18.60;18.20;;;;;8.70;43.42;97370.69;5069177;28;8874;-78
2024/01/07 06:43:42;;;;;;;;;16.00;14.40;;;;;8.71;43.67;97376.78;5067804;28;8854;-78
2024/01/07 06:46:11;;;;;;;;;16.20;16.20;;;;;8.70;43.68;97368.06;5068745;28;8968;-77
2024/01/07 06:48:40;;;;;;;;;17.00;16.60;;;;;8.65;43.49;97375.31;5068940;28;9024;-77
2024/01/07 06:51:15;;;;;;;;;10.20;9.80;;;;;8.62;43.51;97378.91;5068803;28;8870;-77
2024/01/07 06:53:45;;;;;;;;;16.60;13.80;;;;;8.71;44.10;97395.13;5050230;28;8834;-75
2024/01/07 06:56:15;;;;;;;;;22.40;19.40;;;;;8.73;44.27;97393.28;5068976;28;8871;-77
2024/01/07 06:58:45;;;;;;;;;11.80;11.80;;;;;8.80;44.21;97392.91;5033920;28;8861;-77
2024/01/07 07:01:14;;;;;;;;;25.60;24.40;;;;;8.85;44.16;97392.69;5069258;28;9070;-77
2024/01/07 07:03:43;;;;;;;;;14.20;13.60;;;;;8.87;44.36;97395.22;5074431;28;9660;-77
2024/01/07 07:06:12;;;;;;;;;16.80;16.80;;;;;8.91;44.14;97392.38;5077313;28;8858;-77
2024/01/07 07:08:41;;;;;;;;;17.40;14.80;;;;;8.95;43.68;97400.94;5070339;28;8872;-77
2024/01/07 07:11:12;;;;;;;;;17.00;14.00;;;;;9.11;43.42;97401.88;5068823;28;8862;-77
2024/01/07 07:13:41;;;;;;;;;16.80;15.00;;;;;9.20;43.17;97411.06;5068472;28;8834;-77
2024/01/07 07:16:10;;;;;;;;;17.40;16.00;;;;;9.34;42.73;97415.63;5049541;28;8862;-77
2024/01/07 07:18:39;;;;;;;;;19.00;17.40;;;;;9.36;42.60;97416.41;5068933;28;8862;-76
2024/01/07 07:21:10;;;;;;;;;17.00;16.20;;;;;9.48;42.40;97431.53;5068272;28;8877;-77
2024/01/07 07:23:39;;;;;;;;;23.00;20.00;;;;;9.61;42.05;97437.00;5068482;28;9604;-77
2024/01/07 07:26:08;;;;;;;;;26.20;24.00;;;;;9.76;41.99;97445.88;5067303;28;8885;-77
2024/01/07 07:28:39;;;;;;;;;43.40;38.00;;;;;9.72;41.85;97453.03;5068422;28;8826;-77
2024/01/07 07:31:07;;;;;;;;;52.75;43.00;;;;;9.93;41.35;97450.25;5067200;28;8858;-77
2024/01/07 07:33:37;;;;;;;;;21.60;21.60;;;;;10.08;41.12;97456.47;5072224;28;8858;-76
2024/01/07 07:36:06;;;;;;;;;29.20;27.80;;;;;10.23;40.61;97454.81;5072641;28;8889;-77
2024/01/07 07:38:35;;;;;;;;;17.80;17.20;;;;;10.35;40.29;97462.91;5037191;28;8942;-75
2024/01/07 07:41:04;;;;;;;;;20.20;20.00;;;;;10.38;40.19;97462.72;5072003;28;8865;-76
2024/01/07 07:43:33;;;;;;;;;18.40;17.20;;;;;10.46;40.35;97472.81;5071797;28;9646;-78
2024/01/07 07:46:03;;;;;;;;;19.60;17.40;;;;;10.49;39.98;97480.53;5070334;28;8855;-76
2024/01/07 07:48:32;;;;;;;;;17.20;14.60;;;;;10.58;39.90;97485.31;5072156;28;8881;-78
2024/01/07 07:51:01;;;;;;;;;22.80;22.40;;;;;10.71;39.97;97479.41;5070487;28;8850;-77
2024/01/07 07:53:30;;;;;;;;;77.00;63.00;;;;;10.65;40.21;97491.09;5077259;28;8846;-77
2024/01/07 07:55:59;;;;;;;;;30.40;29.80;;;;;10.65;39.89;97487.59;5079245;28;9378;-78
2024/01/07 07:58:29;;;;;;;;;56.75;46.25;;;;;10.70;40.20;97485.56;5072823;28;8890;-77
2024/01/07 08:00:57;;;;;;;;;26.60;26.60;;;;;10.75;39.94;97504.59;5070699;28;8863;-76
2024/01/07 08:03:30;;;;;;;;;25.40;23.80;;;;;10.84;40.10;97498.84;5036946;28;8846;-76
2024/01/07 08:05:59;;;;;;;;;25.60;24.60;;;;;10.88;39.80;97500.38;5071729;28;8981;-77
2024/01/07 08:08:28;;;;;;;;;31.60;29.00;;;;;10.95;40.48;97498.22;5052616;28;8847;-77
2024/01/07 08:10:57;;;;;;;;;26.80;26.60;;;;;11.08;40.61;97504.50;5070115;28;8976;-75
2024/01/07 08:13:26;;;;;;;;;55.50;43.75;;;;;11.19;40.10;97506.53;5071252;28;8839;-78
2024/01/07 08:15:55;;;;;;;;;51.50;42.75;;;;;11.27;40.20;97504.31;5071425;28;8902;-77
2024/01/07 08:18:24;;;;;;;;;32.00;32.00;;;;;11.32;39.76;97504.91;5071405;28;8939;-77
2024/01/07 08:20:55;;;;;;;;;33.20;31.00;;;;;11.37;39.36;97502.88;5071541;28;8866;-76
2024/01/07 08:23:25;;;;;;;;;45.00;37.00;;;;;11.40;39.55;97511.53;5036317;28;8834;-77
2024/01/07 08:25:54;;;;;;;;;60.75;49.50;;;;;11.37;39.11;97508.13;5070951;28;8842;-77
2024/01/07 08:28:24;;;;;;;;;34.60;32.00;;;;;11.40;39.03;97514.16;5070091;28;8858;-76
2024/01/07 08:30:53;;;;;;;;;33.40;31.00;;;;;11.48;39.33;97509.28;5072182;28;8858;-76
2024/01/07 08:33:23;;;;;;;;;49.25;39.00;;;;;11.57;39.65;97511.41;5071209;28;8876;-75
2024/01/07 08:35:51;;;;;;;;;45.00;39.25;;;;;11.56;39.03;97514.97;5070924;28;8977;-77
2024/01/07 08:38:23;;;;;;;;;50.50;42.50;;;;;11.61;39.17;97514.72;5052369;28;8846;-76
2024/01/07 08:40:52;;;;;;;;;48.00;39.25;;;;;11.49;39.41;97519.75;5069522;28;8857;-78
2024/01/07 08:43:21;;;;;;;;;51.50;43.00;;;;;11.25;39.73;97516.72;5076987;28;8855;-76
2024/01/07 08:45:50;;;;;;;;;22.50;20.75;;;;;11.05;40.07;97512.59;5078588;28;8882;-79
2024/01/07 08:48:19;;;;;;;;;49.25;41.00;;;;;11.11;40.11;97517.50;5071485;28;8854;-77
2024/01/07 08:50:49;;;;;;;;;41.25;36.75;;;;;11.17;40.02;97518.94;5071401;28;8969;-77
2024/01/07 08:53:20;;;;;;;;;40.00;35.75;;;;;10.95;40.94;97522.75;5087109;28;8850;-77
2024/01/07 08:55:50;;;;;;;;;38.50;34.50;;;;;11.08;41.08;97525.53;5036544;28;9604;-77
2024/01/07 08:58:19;;;;;;;;;49.50;40.25;;;;;11.08;41.29;97522.91;5070554;28;8850;-77
2024/01/07 09:00:48;;;;;;;;;50.00;41.75;;;;;11.04;42.02;97536.31;5070415;28;8985;-77
2024/01/07 09:03:18;;;;;;;;;58.75;48.00;;;;;11.04;42.80;97533.69;5070588;28;8854;-76
2024/01/07 09:05:47;;;;;;;;;59.25;47.25;;;;;10.90;43.48;97526.56;5070421;28;8951;-76
2024/01/07 09:08:16;;;;;;;;;53.00;42.50;;;;;10.79;44.09;97528.00;5052548;28;8842;-77
2024/01/07 09:10:45;;;;;;;;;57.75;47.75;;;;;10.87;44.44;97527.56;5070231;28;8850;-77
2024/01/07 09:13:15;;;;;;;;;42.50;36.25;;;;;10.70;45.01;97527.63;5070247;28;8854;-77
2024/01/07 09:15:44;;;;;;;;;51.75;43.25;;;;;10.73;45.06;97530.09;5070167;28;8851;-77
2024/01/07 09:18:14;;;;;;;;;49.75;40.00;;;;;10.81;45.27;97524.44;5070395;28;8866;-77
2024/01/07 09:20:43;;;;;;;;;48.75;42.00;;;;;10.63;45.56;97516.56;5069894;28;8835;-75
2024/01/07 09:23:12;;;;;;;;;51.75;42.25;;;;;10.70;46.16;97514.47;5070354;28;8838;-77
2024/01/07 09:25:41;;;;;;;;;53.00;43.00;;;;;10.66;46.61;97513.78;5070074;28;8885;-78
2024/01/07 09:28:10;;;;;;;;;60.25;46.00;;;;;10.82;47.03;97519.06;5069983;28;8973;-77
2024/01/07 09:30:40;;;;;;;;;54.25;44.00;;;;;10.55;47.73;97516.13;5069851;28;8846;-77
2024/01/07 09:33:10;;;;;;;;;50.75;42.00;;;;;10.20;48.33;97518.84;5078006;28;8846;-78
2024/01/07 09:35:39;;;;;;;;;53.75;42.00;;;;;10.36;48.68;97521.53;5077791;28;8866;-78
2024/01/07 09:38:09;;;;;;;;;49.75;42.25;;;;;10.45;48.51;97515.78;5070908;28;8842;-77
2024/01/07 09:40:41;;;;;;;;;51.25;42.25;;;;;10.56;48.29;97517.84;5070852;28;8874;-79
2024/01/07 09:43:10;;;;;;;;;54.50;44.75;;;;;10.67;48.64;97512.88;5070043;28;8862;-77
2024/01/07 09:45:46;;;;;;;;;54.25;45.75;;;;;10.81;47.85;97513.94;5070597;28;9119;-77
2024/01/07 09:48:16;;;;;;;;;53.50;45.00;;;;;10.78;48.29;97512.28;5070312;28;8858;-78
2024/01/07 09:50:45;;;;;;;;;63.75;50.75;;;;;10.92;47.38;97512.41;5069647;28;8842;-78
2024/01/07 09:53:17;;;;;;;;;60.00;49.00;;;;;11.05;47.97;97509.09;5069731;28;8931;-75
2024/01/07 09:55:58;;;;;;;;;61.25;49.50;;;;;11.20;47.51;97510.00;5069032;28;8874;-77
2024/01/07 09:58:27;;;;;;;;;45.25;39.00;;;;;11.23;47.14;97509.84;5069679;28;8847;-77
2024/01/07 10:00:57;;;;;;;;;51.00;42.00;;;;;11.26;46.91;97513.16;5069260;28;8858;-76
2024/01/07 10:03:26;;;;;;;;;45.50;38.75;;;;;11.26;46.09;97512.31;5034518;28;8885;-77
2024/01/07 10:05:55;;;;;;;;;67.50;54.75;;;;;11.37;45.47;97507.31;5069123;28;8850;-79
2024/01/07 10:08:25;;;;;;;;;68.00;56.00;;;;;11.47;45.55;97512.88;5069003;28;9705;-76
2024/01/07 10:10:59;;;;;;;;;56.25;45.25;;;;;11.59;45.64;97506.06;5069280;28;8862;-78
2024/01/07 10:13:28;;;;;;;;;54.25;43.75;;;;;11.42;45.46;97510.50;5069256;28;8855;-76
2024/01/07 10:15:58;;;;;;;;;51.75;42.00;;;;;11.48;45.15;97498.78;5069300;28;9604;-77
2024/01/07 10:18:27;;;;;;;;;34.00;32.50;;;;;11.48;45.76;97499.63;5034577;28;8854;-78
2024/01/07 10:20:56;;;;;;;;;50.00;41.50;;;;;11.51;45.25;97499.44;5069644;28;8858;-77
2024/01/07 10:23:26;;;;;;;;;43.00;38.00;;;;;11.47;45.24;97497.94;5075465;28;8977;-77
2024/01/07 10:25:57;;;;;;;;;47.33;39.33;;;;;11.63;45.39;97503.16;5073331;28;8899;-77
2024/01/07 10:28:28;;;;;;;;;51.50;42.50;;;;;11.72;45.44;97501.78;5070266;28;8843;-77
2024/01/07 10:30:58;;;;;;;;;49.50;42.25;;;;;11.72;45.89;97496.50;5049911;28;8876;-76
2024/01/07 10:33:32;;;;;;;;;51.75;42.75;;;;;11.86;45.79;97493.97;5068955;28;8858;-78
2024/01/07 10:36:04;;;;;;;;;35.80;33.60;;;;;11.83;45.50;97493.28;5067692;28;8946;-77
2024/01/07 10:38:34;;;;;;;;;66.50;51.75;;;;;11.81;45.51;97489.88;5067676;28;8851;-76
2024/01/07 10:41:03;;;;;;;;;41.25;35.50;;;;;11.85;44.74;97483.50;5049744;28;8847;-77
2024/01/07 10:43:32;;;;;;;;;49.75;41.25;;;;;11.93;44.19;97482.09;5068998;28;8835;-77
2024/01/07 10:46:03;;;;;;;;;34.80;31.00;;;;;11.98;44.37;97476.56;5068478;28;8869;-78
2024/01/07 10:48:38;;;;;;;;;29.60;27.20;;;;;12.01;44.16;97473.75;5068474;28;9705;-75
2024/01/07 10:51:09;;;;;;;;;67.25;52.75;;;;;12.03;43.82;97477.16;5050170;28;8855;-77
2024/01/07 10:53:43;;;;;;;;;75.00;57.75;;;;;12.08;43.18;97472.44;5068470;28;8869;-78
2024/01/07 10:56:15;;;;;;;;;65.50;51.00;;;;;12.14;43.44;97482.63;5067135;28;8851;-77
2024/01/07 10:58:45;;;;;;;;;41.00;35.80;;;;;12.08;43.97;97485.59;5068745;28;8842;-76
2024/01/07 11:01:16;;;;;;;;;34.20;33.20;;;;;12.11;44.42;97487.22;5069301;28;8919;-78
2024/01/07 11:03:57;;;;;;;;;36.00;31.60;;;;;12.20;44.19;97488.44;5069219;28;8859;-76
2024/01/07 11:06:44;;;;;;;;;36.20;31.80;;;;;12.07;43.83;97486.56;5069427;28;8935;-77
2024/01/07 11:09:23;;;;;;;;;30.00;29.00;;;;;11.86;43.41;97483.44;5072679;28;8921;-77
2024/01/07 11:11:52;;;;;;;;;34.20;29.80;;;;;11.84;43.38;97476.53;5075790;28;8850;-77
2024/01/07 11:14:39;;;;;;;;;27.40;25.40;;;;;12.05;43.39;97479.66;5081349;28;9105;-77
2024/01/07 11:17:10;;;;;;;;;30.80;29.20;;;;;11.94;43.27;97482.97;5072825;28;8988;-78
2024/01/07 11:19:50;;;;;;;;;37.40;32.60;;;;;11.94;43.67;97489.06;5071620;28;8827;-77
2024/01/07 11:22:24;;;;;;;;;29.60;28.20;;;;;11.95;43.37;97482.84;5071008;28;8853;-77
2024/01/07 11:24:55;;;;;;;;;22.80;19.60;;;;;11.76;43.53;97492.75;5071648;28;8968;-78
2024/01/07 11:27:25;;;;;;;;;24.40;23.00;;;;;11.76;43.46;97482.22;5072538;28;9709;-77
2024/01/07 11:29:56;;;;;;;;;51.00;42.75;;;;;11.84;44.72;97476.53;5072433;28;8959;-76
2024/01/07 11:32:30;;;;;;;;;63.75;50.50;;;;;11.87;44.68;97479.84;5054118;28;8959;-77
2024/01/07 11:34:59;;;;;;;;;59.75;47.50;;;;;11.85;44.30;97472.97;5072416;28;8842;-78
2024/01/07 11:37:28;;;;;;;;;63.00;51.25;;;;;11.87;44.59;97471.09;5037327;28;8976;-77
2024/01/07 11:39:58;;;;;;;;;60.25;49.00;;;;;11.89;44.49;97483.22;5053268;28;8850;-77
2024/01/07 11:42:27;;;;;;;;;71.25;56.00;;;;;11.93;44.50;97476.00;5071957;28;8862;-78
2024/01/07 11:44:57;;;;;;;;;73.75;58.25;;;;;11.87;43.32;97474.56;5071675;28;8850;-76